sensor_id;sensor_type;location;lat;lon;timestamp;pressure;altitude;pressure_sealevel;temperature;humidity
74798;BME280;63326;45.088;7.658;2023-01-15T00:01:51;99062.19;;;2.53;75.14
74798;BME280;63326;45.088;7.658;2023-01-15T00:04:18;99060.88;;;2.59;74.64
74798;BME280;63326;45.088;7.658;2023-01-15T00:06:44;99057.25;;;2.60;75.19
74798;BME280;63326;45.088;7.658;2023-01-15T00:09:15;99069.16;;;2.66;74.25
74798;BME280;63326;45.088;7.658;2023-01-15T00:11:41;99063.75;;;2.67;74.59
74798;BME280;63326;45.088;7.658;2023-01-15T00:14:08;99069.91;;;2.68;74.25
74798;BME280;63326;45.088;7.658;2023-01-15T00:16:35;99040.56;;;2.48;75.12
74798;BME280;63326;45.088;7.658;2023-01-15T00:19:02;99050.41;;;2.57;74.55
74798;BME280;63326;45.088;7.658;2023-01-15T00:21:30;99068.69;;;2.60;74.92
74798;BME280;63326;45.088;7.658;2023-01-15T00:23:56;99070.63;;;2.58;74.15
74798;BME280;63326;45.088;7.658;2023-01-15T00:26:41;99047.78;;;2.46;73.96
74798;BME280;63326;45.088;7.658;2023-01-15T00:29:27;99058.84;;;2.51;73.79
74798;BME280;63326;45.088;7.658;2023-01-15T00:32:05;99028.06;;;2.28;74.23
74798;BME280;63326;45.088;7.658;2023-01-15T00:34:33;99050.06;;;2.40;74.48
74798;BME280;63326;45.088;7.658;2023-01-15T00:37:00;99062.31;;;2.52;74.19
74798;BME280;63326;45.088;7.658;2023-01-15T00:39:27;99033.59;;;2.47;73.99
74798;BME280;63326;45.088;7.658;2023-01-15T00:41:54;99074.34;;;2.67;74.04
74798;BME280;63326;45.088;7.658;2023-01-15T00:44:21;99044.63;;;2.52;73.17
74798;BME280;63326;45.088;7.658;2023-01-15T00:46:50;99032.13;;;2.43;72.62
74798;BME280;63326;45.088;7.658;2023-01-15T00:49:19;99025.53;;;2.38;72.50
74798;BME280;63326;45.088;7.658;2023-01-15T00:51:46;99045.84;;;2.48;72.32
74798;BME280;63326;45.088;7.658;2023-01-15T00:54:13;99046.56;;;2.50;73.21
74798;BME280;63326;45.088;7.658;2023-01-15T00:56:40;99059.06;;;2.59;72.50
74798;BME280;63326;45.088;7.658;2023-01-15T00:59:07;99052.81;;;2.49;73.20
74798;BME280;63326;45.088;7.658;2023-01-15T01:01:33;99056.19;;;2.51;72.83
74798;BME280;63326;45.088;7.658;2023-01-15T01:04:00;99035.16;;;2.39;73.24
74798;BME280;63326;45.088;7.658;2023-01-15T01:06:27;99045.97;;;2.47;73.21
74798;BME280;63326;45.088;7.658;2023-01-15T01:08:54;99047.91;;;2.56;72.81
74798;BME280;63326;45.088;7.658;2023-01-15T01:11:23;99052.56;;;2.64;72.94
74798;BME280;63326;45.088;7.658;2023-01-15T01:13:53;99064.34;;;2.71;72.27
74798;BME280;63326;45.088;7.658;2023-01-15T01:19:04;99032.22;;;2.64;72.74
74798;BME280;63326;45.088;7.658;2023-01-15T01:21:31;99046.41;;;2.74;72.38
74798;BME280;63326;45.088;7.658;2023-01-15T01:23:59;99056.88;;;2.87;72.50
74798;BME280;63326;45.088;7.658;2023-01-15T01:26:27;99050.00;;;2.84;72.30
74798;BME280;63326;45.088;7.658;2023-01-15T01:28:55;99043.63;;;2.87;73.23
74798;BME280;63326;45.088;7.658;2023-01-15T01:31:22;99042.53;;;2.89;73.02
74798;BME280;63326;45.088;7.658;2023-01-15T01:33:51;99031.00;;;2.79;73.24
74798;BME280;63326;45.088;7.658;2023-01-15T01:36:19;99050.34;;;2.91;73.46
74798;BME280;63326;45.088;7.658;2023-01-15T01:38:47;99048.94;;;2.87;73.83
74798;BME280;63326;45.088;7.658;2023-01-15T01:41:17;99038.22;;;2.88;73.60
74798;BME280;63326;45.088;7.658;2023-01-15T01:43:59;99037.50;;;2.86;73.88
74798;BME280;63326;45.088;7.658;2023-01-15T01:46:29;99031.63;;;2.72;74.24
74798;BME280;63326;45.088;7.658;2023-01-15T01:49:16;99046.44;;;2.63;74.64
74798;BME280;63326;45.088;7.658;2023-01-15T01:51:46;99046.81;;;2.47;74.57
74798;BME280;63326;45.088;7.658;2023-01-15T01:54:16;99033.09;;;2.31;74.60
74798;BME280;63326;45.088;7.658;2023-01-15T01:56:48;99049.09;;;2.41;73.94
74798;BME280;63326;45.088;7.658;2023-01-15T01:59:17;99032.38;;;2.40;74.20
74798;BME280;63326;45.088;7.658;2023-01-15T02:01:46;99029.25;;;2.46;73.78
74798;BME280;63326;45.088;7.658;2023-01-15T02:04:13;99024.06;;;2.56;73.79
74798;BME280;63326;45.088;7.658;2023-01-15T02:06:41;99005.06;;;2.51;73.13
74798;BME280;63326;45.088;7.658;2023-01-15T02:09:08;99005.44;;;2.46;72.17
74798;BME280;63326;45.088;7.658;2023-01-15T02:11:34;99000.63;;;2.40;72.21
74798;BME280;63326;45.088;7.658;2023-01-15T02:19:55;98994.31;;;2.64;72.86
74798;BME280;63326;45.088;7.658;2023-01-15T02:22:52;98993.84;;;2.70;72.60
74798;BME280;63326;45.088;7.658;2023-01-15T02:25:18;98977.94;;;2.70;72.60
74798;BME280;63326;45.088;7.658;2023-01-15T02:27:54;98976.84;;;2.72;72.86
74798;BME280;63326;45.088;7.658;2023-01-15T02:30:39;98975.31;;;2.70;73.07
74798;BME280;63326;45.088;7.658;2023-01-15T02:33:17;98942.13;;;2.54;72.52
74798;BME280;63326;45.088;7.658;2023-01-15T02:35:53;98951.75;;;2.67;72.33
74798;BME280;63326;45.088;7.658;2023-01-15T02:38:25;98941.63;;;2.60;72.28
74798;BME280;63326;45.088;7.658;2023-01-15T02:40:58;98928.53;;;2.59;72.64
74798;BME280;63326;45.088;7.658;2023-01-15T02:43:32;98927.47;;;2.50;72.90
74798;BME280;63326;45.088;7.658;2023-01-15T02:46:02;98918.34;;;2.43;73.25
74798;BME280;63326;45.088;7.658;2023-01-15T02:48:34;98915.22;;;2.49;73.19
74798;BME280;63326;45.088;7.658;2023-01-15T02:51:07;98926.97;;;2.56;73.04
74798;BME280;63326;45.088;7.658;2023-01-15T02:53:38;98928.53;;;2.59;72.74
74798;BME280;63326;45.088;7.658;2023-01-15T02:56:14;98890.91;;;2.44;73.09
74798;BME280;63326;45.088;7.658;2023-01-15T02:58:47;98927.69;;;2.58;73.19
74798;BME280;63326;45.088;7.658;2023-01-15T03:01:34;98927.69;;;2.58;73.65
74798;BME280;63326;45.088;7.658;2023-01-15T03:06:53;98942.38;;;2.51;73.63
74798;BME280;63326;45.088;7.658;2023-01-15T03:09:22;98923.19;;;2.38;74.55
74798;BME280;63326;45.088;7.658;2023-01-15T03:12:03;98922.81;;;2.31;74.18
74798;BME280;63326;45.088;7.658;2023-01-15T03:14:55;98926.81;;;2.26;74.42
74798;BME280;63326;45.088;7.658;2023-01-15T03:17:34;98879.59;;;1.99;74.73
74798;BME280;63326;45.088;7.658;2023-01-15T03:20:22;98890.91;;;2.01;74.76
74798;BME280;63326;45.088;7.658;2023-01-15T03:22:53;98902.91;;;2.16;74.59
74798;BME280;63326;45.088;7.658;2023-01-15T03:25:25;98917.06;;;2.26;74.49
74798;BME280;63326;45.088;7.658;2023-01-15T03:27:57;98882.22;;;2.10;74.13
74798;BME280;63326;45.088;7.658;2023-01-15T03:30:26;98897.94;;;2.23;74.26
74798;BME280;63326;45.088;7.658;2023-01-15T03:32:53;98892.44;;;2.26;74.49
74798;BME280;63326;45.088;7.658;2023-01-15T03:38:11;98886.16;;;2.27;75.18
74798;BME280;63326;45.088;7.658;2023-01-15T03:40:49;98875.06;;;2.33;74.94
74798;BME280;63326;45.088;7.658;2023-01-15T03:43:20;98868.34;;;2.29;73.65
74798;BME280;63326;45.088;7.658;2023-01-15T03:46:34;98851.81;;;2.16;72.41
74798;BME280;63326;45.088;7.658;2023-01-15T03:49:26;98877.97;;;2.30;73.08
74798;BME280;63326;45.088;7.658;2023-01-15T03:52:05;98855.44;;;2.15;72.58
74798;BME280;63326;45.088;7.658;2023-01-15T04:00:26;98851.25;;;2.33;72.81
74798;BME280;63326;45.088;7.658;2023-01-15T04:02:59;98863.06;;;2.29;72.34
74798;BME280;63326;45.088;7.658;2023-01-15T04:05:30;98868.50;;;2.27;72.53
74798;BME280;63326;45.088;7.658;2023-01-15T04:07:59;98861.13;;;2.31;73.07
74798;BME280;63326;45.088;7.658;2023-01-15T04:10:28;98841.72;;;2.10;72.58
74798;BME280;63326;45.088;7.658;2023-01-15T04:12:56;98832.72;;;2.01;72.80
74798;BME280;63326;45.088;7.658;2023-01-15T04:15:23;98849.88;;;2.18;72.96
74798;BME280;63326;45.088;7.658;2023-01-15T04:17:50;98853.72;;;2.14;73.05
74798;BME280;63326;45.088;7.658;2023-01-15T04:20:18;98850.88;;;2.06;72.81
74798;BME280;63326;45.088;7.658;2023-01-15T04:22:45;98853.63;;;2.04;73.47
74798;BME280;63326;45.088;7.658;2023-01-15T04:25:12;98852.69;;;2.05;72.82
74798;BME280;63326;45.088;7.658;2023-01-15T04:27:38;98846.44;;;2.06;73.25
74798;BME280;63326;45.088;7.658;2023-01-15T04:30:05;98846.03;;;2.11;73.91
74798;BME280;63326;45.088;7.658;2023-01-15T04:32:32;98837.16;;;2.00;73.59
74798;BME280;63326;45.088;7.658;2023-01-15T04:34:59;98823.84;;;1.91;74.09
74798;BME280;63326;45.088;7.658;2023-01-15T04:37:25;98852.28;;;2.10;74.54
74798;BME280;63326;45.088;7.658;2023-01-15T04:39:52;98854.50;;;2.05;74.19
74798;BME280;63326;45.088;7.658;2023-01-15T04:42:18;98836.81;;;1.94;74.30
74798;BME280;63326;45.088;7.658;2023-01-15T04:45:04;98833.47;;;1.92;74.57
74798;BME280;63326;45.088;7.658;2023-01-15T04:47:31;98827.94;;;1.95;74.23
74798;BME280;63326;45.088;7.658;2023-01-15T04:49:57;98830.69;;;1.93;74.19
74798;BME280;63326;45.088;7.658;2023-01-15T04:52:24;98828.66;;;1.97;74.47
74798;BME280;63326;45.088;7.658;2023-01-15T04:54:53;98826.59;;;2.00;74.69
74798;BME280;63326;45.088;7.658;2023-01-15T04:57:20;98807.84;;;1.92;74.99
74798;BME280;63326;45.088;7.658;2023-01-15T04:59:47;98808.47;;;1.96;74.46
74798;BME280;63326;45.088;7.658;2023-01-15T05:02:13;98805.31;;;2.02;74.70
74798;BME280;63326;45.088;7.658;2023-01-15T05:04:41;98792.91;;;2.02;74.73
74798;BME280;63326;45.088;7.658;2023-01-15T05:07:08;98808.66;;;2.04;74.57
74798;BME280;63326;45.088;7.658;2023-01-15T05:09:35;98804.97;;;1.95;74.82
74798;BME280;63326;45.088;7.658;2023-01-15T05:12:02;98791.03;;;1.93;75.31
74798;BME280;63326;45.088;7.658;2023-01-15T05:14:28;98803.31;;;1.94;75.01
74798;BME280;63326;45.088;7.658;2023-01-15T05:16:55;98815.44;;;1.97;75.72
74798;BME280;63326;45.088;7.658;2023-01-15T05:19:22;98779.63;;;1.82;75.47
74798;BME280;63326;45.088;7.658;2023-01-15T05:21:48;98801.16;;;1.88;75.61
74798;BME280;63326;45.088;7.658;2023-01-15T05:24:16;98778.69;;;1.71;75.93
74798;BME280;63326;45.088;7.658;2023-01-15T05:26:44;98785.78;;;1.71;76.46
74798;BME280;63326;45.088;7.658;2023-01-15T05:29:11;98783.06;;;1.61;76.27
74798;BME280;63326;45.088;7.658;2023-01-15T05:31:38;98795.06;;;1.77;76.67
74798;BME280;63326;45.088;7.658;2023-01-15T05:34:05;98790.13;;;1.72;75.95
74798;BME280;63326;45.088;7.658;2023-01-15T05:36:32;98795.88;;;1.77;75.75
74798;BME280;63326;45.088;7.658;2023-01-15T05:38:59;98798.16;;;1.82;75.04
74798;BME280;63326;45.088;7.658;2023-01-15T05:41:28;98795.50;;;1.82;75.76
74798;BME280;63326;45.088;7.658;2023-01-15T05:46:44;98796.34;;;1.82;74.90
74798;BME280;63326;45.088;7.658;2023-01-15T05:49:14;98781.84;;;1.77;75.21
74798;BME280;63326;45.088;7.658;2023-01-15T05:51:41;98794.75;;;1.91;75.05
74798;BME280;63326;45.088;7.658;2023-01-15T05:54:11;98783.75;;;1.86;75.44
74798;BME280;63326;45.088;7.658;2023-01-15T05:56:39;98797.38;;;2.02;75.33
74798;BME280;63326;45.088;7.658;2023-01-15T05:59:06;98775.53;;;1.89;74.98
74798;BME280;63326;45.088;7.658;2023-01-15T06:01:33;98772.03;;;1.99;75.50
74798;BME280;63326;45.088;7.658;2023-01-15T06:04:01;98771.78;;;2.02;74.42
74798;BME280;63326;45.088;7.658;2023-01-15T06:06:29;98778.50;;;2.07;75.07
74798;BME280;63326;45.088;7.658;2023-01-15T06:08:55;98783.28;;;2.13;74.67
74798;BME280;63326;45.088;7.658;2023-01-15T06:11:22;98736.47;;;1.92;74.98
74798;BME280;63326;45.088;7.658;2023-01-15T06:13:50;98755.16;;;2.12;75.18
74798;BME280;63326;45.088;7.658;2023-01-15T06:16:17;98762.84;;;2.15;75.04
74798;BME280;63326;45.088;7.658;2023-01-15T06:18:44;98733.47;;;1.97;74.79
74798;BME280;63326;45.088;7.658;2023-01-15T06:21:12;98763.09;;;2.12;74.79
74798;BME280;63326;45.088;7.658;2023-01-15T06:23:39;98763.22;;;2.10;74.54
74798;BME280;63326;45.088;7.658;2023-01-15T06:26:15;98768.16;;;2.03;75.41
74798;BME280;63326;45.088;7.658;2023-01-15T06:28:43;98768.69;;;1.97;75.88
74798;BME280;63326;45.088;7.658;2023-01-15T06:31:12;98751.38;;;1.93;75.63
74798;BME280;63326;45.088;7.658;2023-01-15T06:33:39;98755.63;;;1.85;75.41
74798;BME280;63326;45.088;7.658;2023-01-15T06:36:17;98759.09;;;1.85;75.52
74798;BME280;63326;45.088;7.658;2023-01-15T06:38:47;98754.31;;;1.79;75.76
74798;BME280;63326;45.088;7.658;2023-01-15T06:41:21;98750.69;;;1.80;75.99
74798;BME280;63326;45.088;7.658;2023-01-15T06:44:12;98738.94;;;1.73;75.10
74798;BME280;63326;45.088;7.658;2023-01-15T06:47:01;98751.66;;;1.79;74.87
74798;BME280;63326;45.088;7.658;2023-01-15T06:49:54;98744.69;;;1.78;74.82
74798;BME280;63326;45.088;7.658;2023-01-15T06:52:24;98715.66;;;1.67;75.05
74798;BME280;63326;45.088;7.658;2023-01-15T06:54:51;98736.28;;;1.84;73.74
74798;BME280;63326;45.088;7.658;2023-01-15T06:57:18;98708.69;;;1.66;74.20
74798;BME280;63326;45.088;7.658;2023-01-15T06:59:44;98744.91;;;1.86;74.15
74798;BME280;63326;45.088;7.658;2023-01-15T07:02:11;98747.44;;;1.88;74.29
74798;BME280;63326;45.088;7.658;2023-01-15T07:04:38;98717.34;;;1.68;73.80
74798;BME280;63326;45.088;7.658;2023-01-15T07:07:04;98718.00;;;1.81;74.27
74798;BME280;63326;45.088;7.658;2023-01-15T07:09:31;98727.38;;;1.85;74.09
74798;BME280;63326;45.088;7.658;2023-01-15T07:11:58;98730.72;;;1.87;73.95
74798;BME280;63326;45.088;7.658;2023-01-15T07:14:25;98723.06;;;1.84;74.61
74798;BME280;63326;45.088;7.658;2023-01-15T07:16:56;98731.56;;;1.88;74.32
74798;BME280;63326;45.088;7.658;2023-01-15T07:19:24;98727.69;;;1.92;74.79
74798;BME280;63326;45.088;7.658;2023-01-15T07:21:52;98713.44;;;1.83;74.63
74798;BME280;63326;45.088;7.658;2023-01-15T07:24:19;98702.63;;;1.86;74.44
74798;BME280;63326;45.088;7.658;2023-01-15T07:26:45;98713.81;;;2.11;74.86
74798;BME280;63326;45.088;7.658;2023-01-15T07:29:12;98687.28;;;2.01;74.61
74798;BME280;63326;45.088;7.658;2023-01-15T07:31:39;98685.81;;;2.08;74.22
74798;BME280;63326;45.088;7.658;2023-01-15T07:34:06;98694.78;;;2.17;74.23
74798;BME280;63326;45.088;7.658;2023-01-15T07:36:33;98705.03;;;2.31;73.88
74798;BME280;63326;45.088;7.658;2023-01-15T07:39:03;98670.72;;;2.20;74.02
74798;BME280;63326;45.088;7.658;2023-01-15T07:41:30;98653.31;;;2.17;73.58
74798;BME280;63326;45.088;7.658;2023-01-15T07:44:15;98651.28;;;2.30;73.72
74798;BME280;63326;45.088;7.658;2023-01-15T07:47:01;98652.66;;;2.46;73.39
74798;BME280;63326;45.088;7.658;2023-01-15T07:49:46;98662.66;;;2.73;73.28
74798;BME280;63326;45.088;7.658;2023-01-15T07:52:19;98672.63;;;2.90;72.62
74798;BME280;63326;45.088;7.658;2023-01-15T07:54:47;98672.56;;;3.11;72.45
74798;BME280;63326;45.088;7.658;2023-01-15T07:57:17;98677.63;;;3.24;71.62
74798;BME280;63326;45.088;7.658;2023-01-15T07:59:44;98613.28;;;3.02;71.21
74798;BME280;63326;45.088;7.658;2023-01-15T08:02:11;98620.56;;;3.10;70.43
74798;BME280;63326;45.088;7.658;2023-01-15T08:04:38;98637.59;;;3.27;70.22
74798;BME280;63326;45.088;7.658;2023-01-15T08:07:05;98672.81;;;3.48;69.16
74798;BME280;63326;45.088;7.658;2023-01-15T08:09:32;98650.47;;;3.41;69.54
74798;BME280;63326;45.088;7.658;2023-01-15T08:12:00;98679.06;;;3.57;69.84
74798;BME280;63326;45.088;7.658;2023-01-15T08:14:45;98662.03;;;3.40;69.44
74798;BME280;63326;45.088;7.658;2023-01-15T08:17:34;98669.31;;;3.47;69.07
74798;BME280;63326;45.088;7.658;2023-01-15T08:20:03;98679.81;;;3.78;68.84
74798;BME280;63326;45.088;7.658;2023-01-15T08:22:30;98672.13;;;3.94;67.83
74798;BME280;63326;45.088;7.658;2023-01-15T08:24:57;98658.72;;;3.86;68.41
74798;BME280;63326;45.088;7.658;2023-01-15T08:27:24;98633.03;;;3.96;66.87
74798;BME280;63326;45.088;7.658;2023-01-15T08:29:51;98667.91;;;4.40;65.69
74798;BME280;63326;45.088;7.658;2023-01-15T08:32:18;98637.94;;;4.57;65.68
74798;BME280;63326;45.088;7.658;2023-01-15T08:34:44;98646.78;;;4.85;65.14
74798;BME280;63326;45.088;7.658;2023-01-15T08:37:11;98627.69;;;5.00;63.86
74798;BME280;63326;45.088;7.658;2023-01-15T08:39:38;98627.94;;;5.34;62.18
74798;BME280;63326;45.088;7.658;2023-01-15T08:42:05;98639.13;;;5.55;60.28
74798;BME280;63326;45.088;7.658;2023-01-15T08:44:31;98665.16;;;6.15;59.98
74798;BME280;63326;45.088;7.658;2023-01-15T08:46:58;98658.94;;;6.32;60.30
74798;BME280;63326;45.088;7.658;2023-01-15T08:49:25;98668.13;;;6.55;59.76
74798;BME280;63326;45.088;7.658;2023-01-15T08:51:52;98666.81;;;6.59;58.87
74798;BME280;63326;45.088;7.658;2023-01-15T08:54:20;98670.81;;;6.63;59.29
74798;BME280;63326;45.088;7.658;2023-01-15T08:56:47;98639.06;;;6.70;59.52
74798;BME280;63326;45.088;7.658;2023-01-15T08:59:15;98619.97;;;6.83;59.00
74798;BME280;63326;45.088;7.658;2023-01-15T09:01:42;98622.19;;;6.61;57.63
74798;BME280;63326;45.088;7.658;2023-01-15T09:04:20;98646.28;;;6.52;58.40
74798;BME280;63326;45.088;7.658;2023-01-15T09:06:48;98624.84;;;6.61;58.62
74798;BME280;63326;45.088;7.658;2023-01-15T09:09:14;98635.78;;;6.76;58.40
74798;BME280;63326;45.088;7.658;2023-01-15T09:11:41;98619.22;;;6.99;58.43
74798;BME280;63326;45.088;7.658;2023-01-15T09:14:12;98619.38;;;7.47;57.03
74798;BME280;63326;45.088;7.658;2023-01-15T09:16:59;98601.91;;;7.94;55.60
74798;BME280;63326;45.088;7.658;2023-01-15T09:19:26;98613.44;;;8.19;55.01
74798;BME280;63326;45.088;7.658;2023-01-15T09:21:53;98588.56;;;8.34;54.71
74798;BME280;63326;45.088;7.658;2023-01-15T09:24:19;98581.19;;;8.61;53.37
74798;BME280;63326;45.088;7.658;2023-01-15T09:26:46;98591.38;;;9.05;53.46
74798;BME280;63326;45.088;7.658;2023-01-15T09:29:13;98607.53;;;9.50;52.17
74798;BME280;63326;45.088;7.658;2023-01-15T09:31:39;98573.13;;;9.39;51.58
74798;BME280;63326;45.088;7.658;2023-01-15T09:34:06;98596.34;;;9.70;51.27
74798;BME280;63326;45.088;7.658;2023-01-15T09:36:34;98579.81;;;9.66;50.53
74798;BME280;63326;45.088;7.658;2023-01-15T09:39:01;98595.75;;;9.82;50.65
74798;BME280;63326;45.088;7.658;2023-01-15T09:44:42;98585.66;;;9.39;51.81
74798;BME280;63326;45.088;7.658;2023-01-15T09:47:26;98583.78;;;9.16;52.28
74798;BME280;63326;45.088;7.658;2023-01-15T09:55:45;98541.63;;;8.32;54.90
74798;BME280;63326;45.088;7.658;2023-01-15T09:58:14;98574.75;;;8.78;54.17
74798;BME280;63326;45.088;7.658;2023-01-15T10:00:45;98590.16;;;8.68;54.42
74798;BME280;63326;45.088;7.658;2023-01-15T10:03:53;98568.34;;;8.95;54.15
74798;BME280;63326;45.088;7.658;2023-01-15T10:06:28;98576.63;;;9.09;54.53
74798;BME280;63326;45.088;7.658;2023-01-15T10:09:08;98578.66;;;9.07;53.79
74798;BME280;63326;45.088;7.658;2023-01-15T10:11:45;98567.38;;;9.50;52.94
74798;BME280;63326;45.088;7.658;2023-01-15T10:14:42;98563.81;;;10.19;52.40
74798;BME280;63326;45.088;7.658;2023-01-15T10:17:18;98532.69;;;10.18;51.50
74798;BME280;63326;45.088;7.658;2023-01-15T10:19:46;98531.72;;;10.63;50.29
74798;BME280;63326;45.088;7.658;2023-01-15T10:22:39;98544.25;;;11.43;48.86
74798;BME280;63326;45.088;7.658;2023-01-15T10:25:25;98545.28;;;11.63;48.11
74798;BME280;63326;45.088;7.658;2023-01-15T10:27:56;98524.19;;;11.60;47.82
74798;BME280;63326;45.088;7.658;2023-01-15T10:30:54;98543.72;;;11.33;48.61
74798;BME280;63326;45.088;7.658;2023-01-15T10:36:21;98518.00;;;11.81;48.11
74798;BME280;63326;45.088;7.658;2023-01-15T10:39:02;98481.50;;;11.65;48.83
74798;BME280;63326;45.088;7.658;2023-01-15T10:41:37;98507.34;;;11.30;49.29
74798;BME280;63326;45.088;7.658;2023-01-15T10:47:10;98500.22;;;11.01;50.69
74798;BME280;63326;45.088;7.658;2023-01-15T10:49:38;98482.63;;;10.48;51.83
74798;BME280;63326;45.088;7.658;2023-01-15T10:52:18;98494.75;;;10.73;51.64
74798;BME280;63326;45.088;7.658;2023-01-15T10:54:53;98474.66;;;10.84;51.52
74798;BME280;63326;45.088;7.658;2023-01-15T11:00:05;98439.19;;;10.52;51.64
74798;BME280;63326;45.088;7.658;2023-01-15T11:02:42;98443.06;;;10.64;51.89
74798;BME280;63326;45.088;7.658;2023-01-15T11:05:18;98462.94;;;11.06;51.38
74798;BME280;63326;45.088;7.658;2023-01-15T11:07:48;98433.34;;;11.21;51.20
74798;BME280;63326;45.088;7.658;2023-01-15T11:10:35;98444.69;;;11.16;51.35
74798;BME280;63326;45.088;7.658;2023-01-15T11:15:59;98423.97;;;11.10;51.74
74798;BME280;63326;45.088;7.658;2023-01-15T11:18:45;98357.53;;;10.91;51.27
74798;BME280;63326;45.088;7.658;2023-01-15T11:21:31;98399.16;;;11.51;50.65
74798;BME280;63326;45.088;7.658;2023-01-15T11:23:58;98406.13;;;11.73;49.96
74798;BME280;63326;45.088;7.658;2023-01-15T11:26:28;98397.44;;;11.71;50.12
74798;BME280;63326;45.088;7.658;2023-01-15T11:28:58;98360.56;;;11.80;49.44
74798;BME280;63326;45.088;7.658;2023-01-15T11:31:37;98409.00;;;12.34;48.87
74798;BME280;63326;45.088;7.658;2023-01-15T11:34:13;98394.63;;;12.14;48.10
74798;BME280;63326;45.088;7.658;2023-01-15T11:36:42;98396.03;;;12.38;47.86
74798;BME280;63326;45.088;7.658;2023-01-15T11:39:25;98393.47;;;12.84;47.89
74798;BME280;63326;45.088;7.658;2023-01-15T11:42:05;98386.41;;;12.77;46.76
74798;BME280;63326;45.088;7.658;2023-01-15T11:44:53;98383.97;;;11.86;48.80
74798;BME280;63326;45.088;7.658;2023-01-15T11:47:38;98361.72;;;11.99;49.22
74798;BME280;63326;45.088;7.658;2023-01-15T11:50:23;98379.94;;;12.51;47.99
74798;BME280;63326;45.088;7.658;2023-01-15T11:53:14;98354.81;;;12.31;48.20
74798;BME280;63326;45.088;7.658;2023-01-15T11:56:12;98372.88;;;12.44;48.70
74798;BME280;63326;45.088;7.658;2023-01-15T11:58:44;98367.72;;;12.49;49.24
74798;BME280;63326;45.088;7.658;2023-01-15T12:01:28;98356.06;;;13.03;47.61
74798;BME280;63326;45.088;7.658;2023-01-15T12:04:04;98343.22;;;12.98;47.58
74798;BME280;63326;45.088;7.658;2023-01-15T12:06:35;98301.16;;;12.71;47.79
74798;BME280;63326;45.088;7.658;2023-01-15T12:14:57;98339.09;;;13.75;45.70
74798;BME280;63326;45.088;7.658;2023-01-15T12:18:06;98331.81;;;13.82;45.34
74798;BME280;63326;45.088;7.658;2023-01-15T12:21:01;98302.13;;;13.95;44.24
74798;BME280;63326;45.088;7.658;2023-01-15T12:26:26;98301.81;;;13.59;45.79
74798;BME280;63326;45.088;7.658;2023-01-15T12:29:25;98293.09;;;13.70;45.04
74798;BME280;63326;45.088;7.658;2023-01-15T12:34:30;98277.16;;;13.55;44.90
74798;BME280;63326;45.088;7.658;2023-01-15T12:37:08;98245.53;;;13.24;45.58
74798;BME280;63326;45.088;7.658;2023-01-15T12:39:44;98266.03;;;12.98;46.69
74798;BME280;63326;45.088;7.658;2023-01-15T12:42:16;98230.38;;;13.16;46.32
74798;BME280;63326;45.088;7.658;2023-01-15T12:45:09;98249.03;;;12.58;48.11
74798;BME280;63326;45.088;7.658;2023-01-15T12:47:57;98268.22;;;12.55;48.24
74798;BME280;63326;45.088;7.658;2023-01-15T12:50:37;98271.91;;;12.34;48.99
74798;BME280;63326;45.088;7.658;2023-01-15T12:58:57;98267.56;;;12.33;49.06
74798;BME280;63326;45.088;7.658;2023-01-15T13:04:50;98224.75;;;12.19;49.43
74798;BME280;63326;45.088;7.658;2023-01-15T13:07:41;98239.50;;;12.49;48.95
74798;BME280;63326;45.088;7.658;2023-01-15T13:10:16;98210.50;;;12.45;48.97
74798;BME280;63326;45.088;7.658;2023-01-15T13:12:44;98207.66;;;12.59;48.33
74798;BME280;63326;45.088;7.658;2023-01-15T13:15:12;98216.75;;;12.72;48.17
74798;BME280;63326;45.088;7.658;2023-01-15T13:17:55;98211.72;;;12.22;50.45
74798;BME280;63326;45.088;7.658;2023-01-15T13:33:57;98191.47;;;12.20;50.13
74798;BME280;63326;45.088;7.658;2023-01-15T13:36:31;98206.19;;;12.70;49.32
74798;BME280;63326;45.088;7.658;2023-01-15T13:39:01;98190.66;;;12.32;49.57
74798;BME280;63326;45.088;7.658;2023-01-15T13:41:30;98197.66;;;12.20;50.26
74798;BME280;63326;45.088;7.658;2023-01-15T13:44:22;98204.88;;;12.06;51.02
74798;BME280;63326;45.088;7.658;2023-01-15T13:47:01;98200.38;;;12.53;49.65
74798;BME280;63326;45.088;7.658;2023-01-15T13:50:00;98205.59;;;12.81;49.17
74798;BME280;63326;45.088;7.658;2023-01-15T13:52:34;98203.50;;;12.90;48.75
74798;BME280;63326;45.088;7.658;2023-01-15T13:55:18;98206.19;;;12.77;48.74
74798;BME280;63326;45.088;7.658;2023-01-15T13:57:46;98213.22;;;12.38;49.78
74798;BME280;63326;45.088;7.658;2023-01-15T14:00:28;98233.06;;;12.44;50.47
74798;BME280;63326;45.088;7.658;2023-01-15T14:02:57;98233.06;;;12.50;50.49
74798;BME280;63326;45.088;7.658;2023-01-15T14:05:30;98213.00;;;12.26;50.90
74798;BME280;63326;45.088;7.658;2023-01-15T14:07:59;98229.72;;;12.28;51.03
74798;BME280;63326;45.088;7.658;2023-01-15T14:35:36;98204.53;;;10.28;56.85
74798;BME280;63326;45.088;7.658;2023-01-15T14:38:07;98209.84;;;10.43;56.82
74798;BME280;63326;45.088;7.658;2023-01-15T14:40:40;98215.72;;;10.53;55.87
74798;BME280;63326;45.088;7.658;2023-01-15T14:43:19;98202.72;;;10.14;57.34
74798;BME280;63326;45.088;7.658;2023-01-15T14:45:47;98213.22;;;9.94;58.45
74798;BME280;63326;45.088;7.658;2023-01-15T14:50:45;98191.66;;;9.81;58.20
74798;BME280;63326;45.088;7.658;2023-01-15T14:55:51;98190.13;;;9.93;57.97
74798;BME280;63326;45.088;7.658;2023-01-15T15:04:11;98197.91;;;9.52;59.52
74798;BME280;63326;45.088;7.658;2023-01-15T15:06:59;98218.09;;;9.25;61.61
74798;BME280;63326;45.088;7.658;2023-01-15T15:09:35;98215.31;;;9.18;61.21
74798;BME280;63326;45.088;7.658;2023-01-15T15:12:30;98222.69;;;9.16;61.30
74798;BME280;63326;45.088;7.658;2023-01-15T15:15:19;98209.16;;;9.03;61.63
74798;BME280;63326;45.088;7.658;2023-01-15T15:17:58;98220.09;;;8.93;62.07
74798;BME280;63326;45.088;7.658;2023-01-15T15:23:14;98216.22;;;8.81;62.68
74798;BME280;63326;45.088;7.658;2023-01-15T15:25:54;98202.16;;;8.64;63.25
74798;BME280;63326;45.088;7.658;2023-01-15T15:28:22;98206.75;;;8.56;63.28
74798;BME280;63326;45.088;7.658;2023-01-15T15:30:49;98201.13;;;8.51;64.78
74798;BME280;63326;45.088;7.658;2023-01-15T15:33:19;98194.06;;;8.35;64.96